To NAV CANADA Home Page Login to a new session Search on AWWS site Disclaimer Vers la page française équivalente Tips FAQ What's new on the site To the Forecasts and Observations / NOTAM section To "File a Flight Plan" website Publications and other links Update of the User's profile FIC Telephone Numbers My Weather Data Folder Route Weather Data Regional Weather Data Local Weather Data To the Forecasts and Observations / NOTAM section
Request Generated 08/17/2018 at 14:39:52 UTC . Weather information available at that time is displayed.

METAR/TAF

EUREKA/NU    

METAR CWEU 171400Z 15008KT 15SM FEW030 BKN070 BKN100 06/01 A2944 RMK SC2AC4AC1 SLP972=
METAR CWEU 171300Z 17005KT 15SM SCT037 BKN070 BKN100 05/01 A2944 RMK SC4AC2AC1 SLP973=
METAR CWEU 171200Z 00000KT 15SM BKN050 BKN080 BKN100 05/01 A2944 RMK SC5AC1AC1 SLP973=

TAF CYEU 171038Z 1711/1723 ADVISORY OFFSITE 14010KT P6SM FEW025
BKN060 BKN080 TEMPO 1711/1721 P6SM -RA OVC040
FM172100 16010KT P6SM SCT040 TEMPO 1721/1723 BKN040
RMK NXT FCST BY 171800Z=
Your time UTC time
Weather data provided by Environment Canada and NAV CANADA